Chesterfield, United Kingdom
Current Conditions -  °F | °C
As of 5:20 AM on Tuesday 27 Jan 2015 (Local Time) from EGCN Reporting Station
Scattered Clouds Scattered Clouds  
Wind Chill: 37°   Ceiling: Unl
Heat Index: 43°   Visibility: 6mi
Dew Point: 37°   Wind: 10mph
Humidity: 81%   Direction: 260°W
Pressure: 30.33"   Gusts: NA
Location:  53.26°N, 1.39°W
Report Text: EGCN 270520Z 26009KT 9999 SCT043 06/03 Q1027
Loading
Personal Weather Stations






























Interactive Weather Map New forecast layout! Learn more

10-Day Weather Forecast

Advertisements
Track Severe Weather on mobile